Time;durP1;ratioP1;P1;durP2;ratioP2;P2;SDS_P1;SDS_P2;PMS_P1;PMS_P2;Temp;Humidity;BMP_temperature;BMP_pressure;BME280_temperature;BME280_humidity;BME280_pressure;Samples;Min_cycle;Max_cycle;Signal;HPM_P1;HPM_P2
2022/07/12 00:03:58;;;;;;;0.68;0.60;;;;;;;20.18;46.27;96459.06;10330228;28;97070;-69
2022/07/12 00:09:01;;;;;;;1.73;0.80;;;;;;;20.04;47.05;96465.38;10326261;28;98020;-69
2022/07/12 00:14:04;;;;;;;1.65;0.80;;;;;;;19.83;46.81;96464.50;10330962;28;96952;-68
2022/07/12 00:19:08;;;;;;;0.98;0.73;;;;;;;19.71;48.19;96466.09;10327930;28;97047;-68
2022/07/12 00:24:12;;;;;;;1.63;0.70;;;;;;;19.53;48.75;96464.81;10325470;28;98843;-68
2022/07/12 00:29:14;;;;;;;1.95;1.00;;;;;;;19.37;49.13;96470.47;10327552;28;98582;-68
2022/07/12 00:34:19;;;;;;;1.80;0.70;;;;;;;19.22;49.20;96468.75;10326054;28;100225;-68
2022/07/12 00:39:22;;;;;;;1.88;0.73;;;;;;;19.13;49.12;96475.22;10328917;28;97171;-68
2022/07/12 00:44:26;;;;;;;1.58;0.70;;;;;;;18.93;50.35;96474.28;10334274;28;97013;-69
2022/07/12 00:49:31;;;;;;;2.13;0.82;;;;;;;18.71;50.96;96474.34;10334171;28;98365;-68
2022/07/12 00:54:34;;;;;;;2.35;0.70;;;;;;;18.60;51.00;96474.84;10332074;28;98017;-68
2022/07/12 00:59:37;;;;;;;0.70;0.70;;;;;;;18.50;51.25;96470.72;10332681;28;97949;-68
2022/07/12 01:04:45;;;;;;;2.25;0.70;;;;;;;18.45;51.68;96473.13;10331043;28;99052;-69
2022/07/12 01:09:49;;;;;;;0.60;0.60;;;;;;;18.23;51.83;96474.16;10337207;28;97541;-68
2022/07/12 01:14:52;;;;;;;3.85;0.70;;;;;;;17.94;52.01;96470.63;10330134;28;98332;-68
2022/07/12 01:19:59;;;;;;;0.82;0.82;;;;;;;17.74;53.05;96470.41;10332215;28;97790;-68
2022/07/12 01:25:05;;;;;;;0.70;0.70;;;;;;;17.51;53.80;96475.84;10330951;28;97290;-68
2022/07/12 01:30:09;;;;;;;1.02;0.80;;;;;;;17.37;55.11;96473.03;10331897;28;99403;-69
2022/07/12 01:35:13;;;;;;;1.00;0.82;;;;;;;17.17;55.28;96479.88;10330720;28;100193;-68
2022/07/12 01:40:17;;;;;;;1.92;0.70;;;;;;;17.08;55.64;96478.34;10332276;28;98706;-68
2022/07/12 01:45:20;;;;;;;2.50;0.80;;;;;;;17.00;55.47;96485.38;10331401;28;97328;-68
2022/07/12 01:50:23;;;;;;;0.80;0.60;;;;;;;16.95;55.98;96485.09;10330067;28;97214;-68
2022/07/12 01:55:28;;;;;;;1.17;0.75;;;;;;;16.82;55.76;96487.53;10328579;28;96897;-68
2022/07/12 02:00:32;;;;;;;2.72;1.10;;;;;;;16.77;56.22;96495.97;10332680;28;97745;-68
2022/07/12 02:05:36;;;;;;;0.77;0.73;;;;;;;16.87;55.93;96498.38;10328876;28;96907;-68
2022/07/12 02:10:40;;;;;;;2.53;1.37;;;;;;;16.88;55.97;96497.34;10337836;28;98006;-68
2022/07/12 02:15:43;;;;;;;1.20;0.90;;;;;;;16.84;56.20;96493.44;10331706;28;99452;-68
2022/07/12 02:20:46;;;;;;;2.47;0.80;;;;;;;16.57;57.16;96503.56;10325140;28;99187;-68
2022/07/12 02:25:50;;;;;;;1.05;0.95;;;;;;;16.36;57.85;96492.88;10331824;28;97264;-68
2022/07/12 02:30:53;;;;;;;2.63;0.88;;;;;;;16.26;58.61;96498.41;10337636;28;97946;-68
2022/07/12 02:35:56;;;;;;;2.00;0.90;;;;;;;16.26;59.08;96503.66;10338001;28;99060;-68
2022/07/12 02:41:00;;;;;;;2.35;1.00;;;;;;;16.29;59.08;96508.56;10348271;28;96869;-68
2022/07/12 02:46:05;;;;;;;1.15;0.90;;;;;;;16.15;58.64;96507.53;10336552;28;96900;-68
2022/07/12 02:51:09;;;;;;;2.03;0.75;;;;;;;16.01;59.74;96505.66;10325441;28;97731;-68
2022/07/12 02:56:14;;;;;;;1.27;1.00;;;;;;;15.95;59.91;96506.38;10336265;28;97105;-68
2022/07/12 03:01:17;;;;;;;1.10;0.85;;;;;;;16.03;59.66;96501.03;10337757;28;96884;-68
2022/07/12 03:06:20;;;;;;;1.05;0.80;;;;;;;15.93;60.34;96511.81;10336236;28;96846;-68
2022/07/12 03:11:24;;;;;;;1.60;0.82;;;;;;;15.84;60.21;96526.84;10337518;28;96833;-68
2022/07/12 03:16:27;;;;;;;2.08;1.00;;;;;;;15.83;60.39;96525.19;10337282;28;96918;-68
2022/07/12 03:21:30;;;;;;;2.78;0.70;;;;;;;15.78;60.38;96522.25;10336328;28;97999;-68
2022/07/12 03:26:34;;;;;;;1.33;0.95;;;;;;;15.69;59.67;96520.66;10331152;28;96885;-68
2022/07/12 03:31:37;;;;;;;2.05;0.90;;;;;;;15.56;60.70;96528.25;10327962;28;99150;-68
2022/07/12 03:36:41;;;;;;;0.80;0.80;;;;;;;15.42;61.69;96538.50;10326667;28;98474;-68
2022/07/12 03:41:45;;;;;;;1.17;0.95;;;;;;;15.36;60.80;96544.47;10326912;28;96790;-68
2022/07/12 03:46:48;;;;;;;1.00;0.90;;;;;;;15.27;61.26;96548.13;10326646;28;97564;-68
2022/07/12 03:51:51;;;;;;;1.17;0.90;;;;;;;15.21;60.50;96551.44;10324138;28;98752;-68
2022/07/12 04:02:16;;;;;;;1.70;0.90;;;;;;;15.16;61.55;96564.28;10326078;28;97798;-68
2022/07/12 04:07:20;;;;;;;2.55;0.90;;;;;;;15.05;61.22;96561.00;10324820;28;97065;-68
2022/07/12 04:12:24;;;;;;;0.83;0.80;;;;;;;15.09;62.03;96559.66;10329075;28;97096;-68
2022/07/12 04:17:27;;;;;;;1.42;0.90;;;;;;;15.07;61.43;96560.84;10332139;28;98720;-68
2022/07/12 04:22:30;;;;;;;1.15;0.90;;;;;;;15.21;62.32;96559.31;10331220;28;97371;-68
2022/07/12 04:27:34;;;;;;;2.03;1.58;;;;;;;15.39;61.50;96569.63;10330049;28;98585;-68
2022/07/12 04:32:37;;;;;;;3.55;1.40;;;;;;;15.50;60.79;96567.44;10333883;28;97738;-68
2022/07/12 04:37:40;;;;;;;2.50;1.30;;;;;;;15.52;61.56;96569.09;10329478;28;98689;-68
2022/07/12 04:42:44;;;;;;;1.35;1.20;;;;;;;15.61;60.88;96568.09;10333647;28;96876;-68
2022/07/12 04:47:47;;;;;;;1.70;1.20;;;;;;;15.72;60.95;96578.28;10327868;28;97703;-68
2022/07/12 04:52:50;;;;;;;1.33;1.08;;;;;;;15.74;61.82;96578.91;10327409;28;97312;-68
2022/07/12 04:57:55;;;;;;;1.40;1.05;;;;;;;15.86;61.72;96593.34;10336040;28;96736;-68
2022/07/12 05:02:58;;;;;;;1.70;1.10;;;;;;;16.00;61.69;96598.88;10339947;28;96756;-68
2022/07/12 05:08:01;;;;;;;1.30;0.90;;;;;;;16.18;60.49;96602.06;10333611;28;97065;-68
2022/07/12 05:13:05;;;;;;;0.90;0.73;;;;;;;16.36;60.00;96593.06;10334746;28;96882;-71
2022/07/12 05:18:09;;;;;;;5.25;1.08;;;;;;;16.53;60.13;96599.84;10317593;28;97953;-71
2022/07/12 05:23:12;;;;;;;4.15;1.10;;;;;;;16.71;59.94;96601.38;10326790;28;97243;-68
2022/07/12 05:28:16;;;;;;;1.38;0.93;;;;;;;16.82;58.81;96595.72;10321540;28;97730;-68
2022/07/12 05:33:19;;;;;;;1.85;1.08;;;;;;;17.07;59.08;96601.56;10329342;28;98853;-68
2022/07/12 05:38:22;;;;;;;1.98;0.85;;;;;;;17.34;58.13;96592.22;10333263;28;97176;-68
2022/07/12 05:43:26;;;;;;;3.15;1.30;;;;;;;17.63;58.82;96595.03;10331952;28;96859;-68
2022/07/12 05:48:29;;;;;;;2.53;1.35;;;;;;;17.79;57.86;96594.03;10330129;28;97049;-68
2022/07/12 05:53:32;;;;;;;3.30;1.33;;;;;;;17.86;57.99;96592.34;10329129;28;96788;-68
2022/07/12 05:58:36;;;;;;;3.05;1.20;;;;;;;17.91;58.25;96609.28;10341810;28;97048;-68
2022/07/12 06:03:42;;;;;;;2.80;1.20;;;;;;;17.84;57.71;96615.47;10325810;28;97227;-68
2022/07/12 06:08:45;;;;;;;3.08;1.20;;;;;;;17.87;58.36;96617.75;10331075;28;96900;-68
2022/07/12 06:13:50;;;;;;;2.58;1.20;;;;;;;18.03;58.95;96622.84;10332232;28;96757;-68
2022/07/12 06:18:53;;;;;;;1.88;1.30;;;;;;;18.25;59.35;96625.50;10327676;28;97631;-68
2022/07/12 06:23:56;;;;;;;1.83;1.00;;;;;;;18.38;58.66;96627.50;10337468;28;96792;-68
2022/07/12 06:29:00;;;;;;;2.88;1.10;;;;;;;18.45;58.97;96629.19;10334121;28;96842;-68
2022/07/12 06:34:03;;;;;;;3.53;1.20;;;;;;;18.50;58.16;96626.81;10334022;28;96885;-68
2022/07/12 06:39:06;;;;;;;2.10;1.17;;;;;;;18.57;59.11;96628.69;10332718;28;96898;-68
2022/07/12 06:44:10;;;;;;;1.85;1.23;;;;;;;18.72;58.65;96620.69;10333613;28;98322;-68
2022/07/12 06:49:13;;;;;;;2.08;1.00;;;;;;;18.87;58.05;96627.59;10315146;28;98136;-68
2022/07/12 06:54:16;;;;;;;0.98;0.85;;;;;;;18.98;57.92;96625.44;10330557;28;97037;-67
2022/07/12 06:59:20;;;;;;;2.00;0.90;;;;;;;19.15;58.10;96624.16;10336741;28;96871;-68
2022/07/12 07:04:23;;;;;;;1.83;1.10;;;;;;;19.21;57.23;96625.19;10332905;28;97392;-68
2022/07/12 07:09:26;;;;;;;1.45;0.95;;;;;;;19.31;57.17;96628.34;10333020;28;96764;-69
2022/07/12 07:14:30;;;;;;;1.17;0.85;;;;;;;19.45;56.62;96629.25;10332254;28;96874;-68
2022/07/12 07:19:33;;;;;;;2.47;1.10;;;;;;;19.53;56.26;96628.28;10331963;28;96954;-68
2022/07/12 07:24:36;;;;;;;1.95;1.00;;;;;;;19.71;55.38;96630.41;10328963;28;96712;-67
2022/07/12 07:35:01;;;;;;;1.45;1.05;;;;;;;19.93;55.59;96641.78;10330557;28;96867;-68
2022/07/12 07:40:06;;;;;;;2.70;1.23;;;;;;;20.14;55.82;96646.16;10317815;28;100472;-70
2022/07/12 07:45:11;;;;;;;1.05;0.95;;;;;;;20.28;55.16;96637.22;10332016;28;97069;-70
2022/07/12 07:50:20;;;;;;;1.80;1.10;;;;;;;20.41;54.32;96635.63;10330605;28;96830;-68
2022/07/12 07:55:23;;;;;;;2.35;0.90;;;;;;;20.44;54.83;96632.56;10331882;28;97109;-68
2022/07/12 08:00:27;;;;;;;2.45;0.85;;;;;;;20.55;53.15;96632.00;10328455;28;97355;-67
2022/07/12 08:05:30;;;;;;;;;;;;;;;20.66;53.13;96642.00;10342297;28;97387;-68
2022/07/12 08:10:33;;;;;;;1.92;1.05;;;;;;;20.69;52.26;96635.50;10335843;28;96743;-67
2022/07/12 08:15:37;;;;;;;4.15;1.77;;;;;;;20.83;52.55;96633.72;10336287;28;97250;-68
2022/07/12 08:20:40;;;;;;;;;;;;;;;20.94;52.14;96630.44;10331789;28;97635;-68
2022/07/12 08:25:49;;;;;;;2.10;1.00;;;;;;;21.01;51.13;96623.28;10331340;28;96913;-67
2022/07/12 08:30:55;;;;;;;1.70;1.05;;;;;;;21.10;51.53;96632.69;10325020;28;96755;-68
2022/07/12 08:35:59;;;;;;;3.15;1.05;;;;;;;21.17;51.47;96629.22;10327844;28;97095;-68
2022/07/12 08:41:02;;;;;;;1.40;1.02;;;;;;;21.28;51.32;96636.56;10330123;28;96767;-68
2022/07/12 08:46:08;;;;;;;3.25;0.90;;;;;;;21.44;50.88;96641.44;10330391;28;96821;-68
2022/07/12 08:51:12;;;;;;;3.20;1.02;;;;;;;21.60;50.87;96636.72;10329226;28;98562;-68
2022/07/12 08:56:31;;;;;;;;;;;;;;;21.76;50.50;96635.50;10330323;28;96771;-68
2022/07/12 09:01:42;;;;;;;3.05;0.95;;;;;;;21.75;50.43;96642.66;10330474;28;96783;-68
2022/07/12 09:06:46;;;;;;;1.42;0.90;;;;;;;21.79;50.38;96633.22;10336449;28;96736;-68
2022/07/12 09:11:49;;;;;;;1.85;1.13;;;;;;;21.87;49.93;96635.66;10336907;28;97303;-68
2022/07/12 09:17:04;;;;;;;1.30;1.00;;;;;;;22.02;49.55;96640.75;10336287;28;99452;-69
2022/07/12 09:22:16;;;;;;;2.65;1.30;;;;;;;22.12;49.13;96634.16;10335956;28;96789;-67
2022/07/12 09:27:26;;;;;;;1.30;1.10;;;;;;;22.31;48.20;96637.75;10331920;28;96851;-69
2022/07/12 09:37:52;;;;;;;1.85;0.77;;;;;;;22.59;47.01;96643.56;10336220;28;98775;-68
2022/07/12 09:42:56;;;;;;;1.40;0.90;;;;;;;22.68;46.79;96628.13;10334676;28;96785;-68
2022/07/12 09:48:02;;;;;;;1.52;0.90;;;;;;;22.87;46.63;96629.03;10335336;28;96852;-68
2022/07/12 09:53:05;;;;;;;3.22;1.05;;;;;;;23.02;46.15;96611.94;10335664;28;96796;-68
2022/07/12 09:58:09;;;;;;;2.13;0.88;;;;;;;23.16;45.78;96616.13;10335350;28;96743;-68
2022/07/12 10:03:14;;;;;;;1.20;0.90;;;;;;;23.25;45.46;96619.31;10328049;28;97989;-68
2022/07/12 10:08:19;;;;;;;1.23;0.93;;;;;;;23.33;44.77;96611.91;10328915;28;98324;-68
2022/07/12 10:13:22;;;;;;;1.48;0.90;;;;;;;23.38;44.95;96614.72;10332970;28;96926;-68
2022/07/12 10:18:27;;;;;;;3.00;0.90;;;;;;;23.61;44.49;96621.25;10334854;28;98088;-68
2022/07/12 10:23:35;;;;;;;1.80;0.90;;;;;;;23.89;43.98;96619.94;10331330;28;97069;-68
2022/07/12 10:29:00;;;;;;;3.80;1.08;;;;;;;23.96;43.47;96615.34;10321238;28;97799;-68
2022/07/12 10:34:13;;;;;;;2.58;0.82;;;;;;;23.99;43.35;96617.56;10322412;28;96906;-68
2022/07/12 10:39:16;;;;;;;2.40;1.10;;;;;;;24.27;43.15;96617.03;10333814;28;98355;-68
2022/07/12 10:44:34;;;;;;;2.08;0.82;;;;;;;24.48;42.16;96612.25;10330222;28;97090;-66
2022/07/12 10:49:43;;;;;;;2.80;1.00;;;;;;;24.60;42.00;96618.44;10332033;28;97090;-66
2022/07/12 10:55:18;;;;;;;1.00;0.90;;;;;;;24.82;41.72;96613.44;10321243;28;97590;-67
2022/07/12 11:00:22;;;;;;;1.73;1.00;;;;;;;25.07;41.37;96617.75;10328637;28;98708;-66
2022/07/12 11:05:27;;;;;;;2.35;1.08;;;;;;;25.15;40.63;96612.09;10332722;28;96813;-66
2022/07/12 11:10:30;;;;;;;1.67;0.98;;;;;;;25.30;40.95;96616.97;10342645;28;98453;-66
2022/07/12 11:15:33;;;;;;;1.40;0.80;;;;;;;25.46;40.17;96612.78;10332019;28;96946;-66
2022/07/12 11:20:39;;;;;;;2.87;0.90;;;;;;;25.69;39.53;96614.66;10325840;28;96788;-66
2022/07/12 11:25:42;;;;;;;0.80;0.73;;;;;;;25.88;39.28;96609.97;10327401;28;100416;-67
2022/07/12 11:30:49;;;;;;;0.88;0.77;;;;;;;26.08;39.10;96603.41;10325221;28;97299;-66
2022/07/12 11:35:56;;;;;;;1.48;0.93;;;;;;;26.30;38.37;96601.72;10331892;28;96783;-66
2022/07/12 11:41:00;;;;;;;1.23;0.88;;;;;;;26.32;38.07;96602.28;10332275;28;96842;-66
2022/07/12 11:46:04;;;;;;;1.38;0.88;;;;;;;26.21;38.20;96597.78;10331902;28;96891;-66
2022/07/12 11:51:10;;;;;;;1.63;0.93;;;;;;;26.24;37.95;96599.16;10331558;28;96615;-66
2022/07/12 11:56:13;;;;;;;1.13;0.70;;;;;;;26.44;37.64;96596.91;10331965;28;96781;-66
2022/07/12 12:01:16;;;;;;;1.73;1.10;;;;;;;26.70;37.34;96595.47;10320705;28;96913;-66
2022/07/12 12:06:20;;;;;;;1.13;0.87;;;;;;;26.83;36.44;96594.38;10331607;28;97797;-66
2022/07/12 12:11:29;;;;;;;1.83;0.60;;;;;;;26.91;36.16;96579.75;10330992;28;96953;-66
2022/07/12 12:16:34;;;;;;;0.60;0.60;;;;;;;26.88;35.44;96580.22;10329758;28;97412;-66
2022/07/12 12:21:38;;;;;;;1.27;0.70;;;;;;;26.84;34.37;96571.06;10330810;28;97049;-66
2022/07/12 12:26:41;;;;;;;1.85;0.60;;;;;;;26.99;33.63;96571.34;10330649;28;97313;-66
2022/07/12 12:31:57;;;;;;;2.73;0.80;;;;;;;27.00;33.63;96578.31;10330967;28;96944;-66
2022/07/12 12:37:06;;;;;;;1.52;0.60;;;;;;;27.33;33.16;96560.56;10334177;28;96795;-66
2022/07/12 12:42:12;;;;;;;0.90;0.60;;;;;;;27.39;32.35;96554.22;10333200;28;96780;-66
2022/07/12 12:47:34;;;;;;;2.20;0.65;;;;;;;27.39;31.78;96562.25;10335220;28;96798;-66
2022/07/12 12:52:48;;;;;;;0.68;0.40;;;;;;;27.59;30.06;96558.22;10330999;28;96759;-66
2022/07/12 12:57:52;;;;;;;1.35;0.50;;;;;;;27.64;30.25;96552.97;10337125;28;96784;-67
2022/07/12 13:02:55;;;;;;;0.73;0.50;;;;;;;27.97;28.76;96553.91;10337394;28;96683;-66
2022/07/12 13:08:00;;;;;;;1.85;0.40;;;;;;;28.16;28.15;96551.69;10332303;28;96914;-68
2022/07/12 13:13:05;;;;;;;1.10;0.60;;;;;;;28.35;28.56;96544.94;10336247;28;98097;-67
2022/07/12 13:18:08;;;;;;;0.43;0.30;;;;;;;28.45;28.36;96549.59;10336248;28;96828;-66
2022/07/12 13:23:12;;;;;;;5.00;0.70;;;;;;;28.74;27.57;96550.13;10336459;28;96755;-66
2022/07/12 13:28:15;;;;;;;0.57;0.30;;;;;;;28.90;27.35;96544.88;10330748;28;97305;-66
2022/07/12 13:33:18;;;;;;;0.55;0.35;;;;;;;29.01;26.54;96543.09;10333428;28;96763;-67
2022/07/12 13:38:22;;;;;;;0.90;0.50;;;;;;;29.13;26.62;96546.41;10335577;28;97141;-67
2022/07/12 13:43:25;;;;;;;0.38;0.28;;;;;;;29.45;25.47;96542.81;10331977;28;96828;-66
2022/07/12 13:48:28;;;;;;;0.23;0.23;;;;;;;29.50;25.27;96534.78;10334682;28;96913;-67
2022/07/12 13:53:32;;;;;;;2.97;0.35;;;;;;;29.50;25.61;96535.59;10335477;28;96888;-67
2022/07/12 13:58:35;;;;;;;1.55;0.40;;;;;;;29.59;25.85;96524.34;10334470;28;96889;-67
2022/07/12 14:03:38;;;;;;;1.83;0.40;;;;;;;29.67;25.95;96521.16;10335482;28;96775;-67
2022/07/12 14:08:42;;;;;;;1.23;0.38;;;;;;;30.10;25.89;96519.16;10335211;28;96867;-67
2022/07/12 14:13:45;;;;;;;0.40;0.40;;;;;;;30.57;25.49;96518.16;10335411;28;96779;-66
2022/07/12 14:18:48;;;;;;;0.85;0.50;;;;;;;31.32;24.46;96519.47;10334903;28;96828;-67
2022/07/12 14:23:52;;;;;;;;;;;;;;;32.39;24.17;96517.41;10335118;28;96806;-67
2022/07/12 14:28:55;;;;;;;1.02;0.30;;;;;;;33.70;22.55;96518.41;10332390;28;96836;-67
2022/07/12 14:33:58;;;;;;;2.70;0.43;;;;;;;35.09;21.29;96525.34;10335077;28;96802;-67
2022/07/12 14:39:02;;;;;;;0.38;0.20;;;;;;;36.25;19.66;96516.34;10334812;28;96743;-67
2022/07/12 14:44:06;;;;;;;0.43;0.40;;;;;;;36.76;19.46;96509.72;10334013;28;96755;-67
2022/07/12 14:49:09;;;;;;;1.75;0.30;;;;;;;38.35;18.14;96509.19;10318410;28;101139;-68
2022/07/12 14:54:14;;;;;;;0.60;0.30;;;;;;;39.34;16.99;96511.16;10324427;28;96951;-68
2022/07/12 14:59:16;;;;;;;0.93;0.40;;;;;;;40.78;15.22;96509.28;10333215;28;97320;-68
2022/07/12 15:04:19;;;;;;;0.30;0.28;;;;;;;40.94;14.76;96512.19;10341584;28;97449;-68
2022/07/12 15:09:24;;;;;;;0.75;0.20;;;;;;;41.62;14.61;96500.75;10332643;28;96954;-68
2022/07/12 15:14:26;;;;;;;1.23;0.30;;;;;;;42.00;13.99;96504.28;10332866;28;96805;-68
2022/07/12 15:19:29;;;;;;;1.05;0.20;;;;;;;42.34;13.74;96500.25;10332704;28;98319;-68
2022/07/12 15:24:34;;;;;;;1.77;0.38;;;;;;;42.84;13.78;96489.06;10333120;28;97489;-68
2022/07/12 15:29:40;;;;;;;1.90;0.40;;;;;;;41.66;14.16;96482.47;10317705;28;99122;-68
2022/07/12 15:34:43;;;;;;;1.13;0.40;;;;;;;41.19;14.19;96496.63;10312291;28;98844;-68
2022/07/12 15:39:47;;;;;;;1.33;0.40;;;;;;;41.17;14.11;96487.13;10314345;28;97731;-68
2022/07/12 15:44:51;;;;;;;0.68;0.40;;;;;;;41.36;14.02;96490.09;10321752;28;98476;-68
2022/07/12 15:49:55;;;;;;;2.58;0.40;;;;;;;40.92;14.30;96476.09;10319907;28;99059;-68
2022/07/12 15:55:00;;;;;;;1.35;0.40;;;;;;;41.08;14.21;96476.25;10327073;28;96971;-68
2022/07/12 16:00:04;;;;;;;0.85;0.38;;;;;;;41.52;14.09;96476.56;10327681;28;96878;-68
2022/07/12 16:05:07;;;;;;;2.03;0.40;;;;;;;42.24;13.20;96478.75;10325483;28;96842;-68
2022/07/12 16:10:12;;;;;;;0.82;0.20;;;;;;;42.60;13.08;96479.78;10328612;28;98398;-68
2022/07/12 16:15:15;;;;;;;0.45;0.30;;;;;;;42.04;13.09;96469.53;10330543;28;96811;-68
2022/07/12 16:20:19;;;;;;;0.68;0.30;;;;;;;42.08;12.88;96475.94;10327879;28;96981;-68
2022/07/12 16:25:23;;;;;;;0.47;0.32;;;;;;;42.52;12.03;96467.78;10329335;28;96914;-68
2022/07/12 16:30:28;;;;;;;2.25;0.40;;;;;;;43.32;11.89;96473.41;10328544;28;96878;-68
2022/07/12 16:35:31;;;;;;;0.30;0.22;;;;;;;43.08;12.13;96471.63;10330580;28;97085;-68
2022/07/12 16:40:35;;;;;;;0.73;0.30;;;;;;;42.91;12.27;96473.56;10328288;28;96879;-68
2022/07/12 16:45:38;;;;;;;0.70;0.40;;;;;;;42.93;12.39;96476.75;10328538;28;98141;-68
2022/07/12 16:50:41;;;;;;;1.40;0.60;;;;;;;43.25;11.54;96470.50;10328513;28;99248;-68
2022/07/12 16:55:46;;;;;;;8.75;0.98;;;;;;;43.66;11.59;96460.09;10325878;28;96859;-72
2022/07/12 17:00:48;;;;;;;2.17;0.32;;;;;;;43.28;11.96;96470.59;10321434;28;97144;-73
2022/07/12 17:05:51;;;;;;;1.88;0.30;;;;;;;42.64;12.49;96466.94;10326805;28;96883;-73
2022/07/12 17:10:56;;;;;;;1.40;0.43;;;;;;;42.55;11.93;96474.53;10320999;28;100925;-74
2022/07/12 17:16:00;;;;;;;0.70;0.38;;;;;;;42.30;12.39;96471.91;10324717;28;97030;-74
2022/07/12 17:21:03;;;;;;;1.15;0.35;;;;;;;42.70;11.87;96473.81;10320298;28;97824;-74
2022/07/12 17:26:08;;;;;;;0.95;0.50;;;;;;;42.44;11.85;96477.00;10333539;28;98762;-73
2022/07/12 17:31:11;;;;;;;2.35;0.50;;;;;;;42.31;11.95;96481.72;10328264;28;96916;-73
2022/07/12 17:36:15;;;;;;;0.45;0.40;;;;;;;41.91;12.23;96462.47;10331954;28;96802;-74
2022/07/12 17:41:19;;;;;;;0.73;0.40;;;;;;;41.54;12.21;96477.00;10329529;28;98425;-73
2022/07/12 17:46:22;;;;;;;1.05;0.73;;;;;;;41.49;12.33;96477.25;10330815;28;100305;-73
2022/07/12 17:51:26;;;;;;;1.95;0.73;;;;;;;40.83;12.45;96478.94;10332854;28;99481;-73
2022/07/12 17:56:30;;;;;;;0.60;0.40;;;;;;;40.10;13.51;96484.88;10330419;28;97124;-73
2022/07/12 18:01:33;;;;;;;1.95;0.47;;;;;;;39.71;13.68;96490.41;10327104;28;100150;-74
2022/07/12 18:06:36;;;;;;;1.48;0.40;;;;;;;39.24;14.04;96488.50;10325400;28;96966;-73
2022/07/12 18:22:17;;;;;;;0.57;0.40;;;;;;;33.86;17.56;96505.47;10232895;28;98670;-73
2022/07/12 18:27:22;;;;;;;3.05;0.60;;;;;;;32.17;19.45;96508.63;10226504;28;99750;-73
2022/07/12 18:32:24;;;;;;;3.33;1.02;;;;;;;31.21;20.45;96506.00;10240912;28;97012;-72
2022/07/12 18:37:27;;;;;;;1.15;0.63;;;;;;;30.40;21.26;96513.03;10243704;28;98725;-73
2022/07/12 18:42:32;;;;;;;4.78;2.33;;;;;;;29.55;22.18;96510.63;10237893;28;98643;-66
2022/07/12 18:47:34;;;;;;;2.78;0.85;;;;;;;28.67;23.47;96508.38;10234408;28;96922;-68
2022/07/12 18:52:37;;;;;;;1.27;0.60;;;;;;;28.06;24.98;96506.72;10274825;28;97219;-68
2022/07/12 18:57:42;;;;;;;1.50;0.90;;;;;;;27.65;25.83;96508.97;10324561;28;97208;-68
2022/07/12 19:02:44;;;;;;;2.17;1.10;;;;;;;27.30;26.68;96512.78;10322877;28;98367;-68
2022/07/12 19:07:47;;;;;;;2.03;0.90;;;;;;;26.78;27.41;96513.06;10327219;28;97033;-67
2022/07/12 19:12:52;;;;;;;2.33;1.30;;;;;;;26.50;27.85;96522.78;10330801;28;97665;-68
2022/07/12 19:17:56;;;;;;;3.95;1.48;;;;;;;26.22;28.14;96527.09;10324643;28;97418;-68
2022/07/12 19:22:59;;;;;;;2.50;1.60;;;;;;;25.86;28.20;96528.28;10325023;28;96822;-68
2022/07/12 19:28:04;;;;;;;2.25;1.00;;;;;;;25.66;28.30;96540.22;10326278;28;96941;-67
2022/07/12 19:33:09;;;;;;;2.25;1.02;;;;;;;25.48;27.89;96549.19;10329558;28;96776;-67
2022/07/12 19:38:12;;;;;;;4.00;1.33;;;;;;;25.28;28.48;96546.06;10323424;28;96991;-68
2022/07/12 19:43:17;;;;;;;1.45;0.88;;;;;;;25.09;27.83;96545.38;10311745;28;98854;-74
2022/07/12 19:48:20;;;;;;;1.38;0.95;;;;;;;24.94;27.93;96545.81;10327854;28;96841;-73
2022/07/12 19:53:23;;;;;;;0.88;0.70;;;;;;;24.78;27.57;96558.78;10320719;28;97787;-73
2022/07/12 19:58:27;;;;;;;1.10;0.80;;;;;;;24.69;27.48;96562.81;10319124;28;97108;-72
2022/07/12 20:03:30;;;;;;;1.40;0.90;;;;;;;24.56;28.06;96560.34;10326325;28;99044;-74
2022/07/12 20:08:33;;;;;;;1.73;1.10;;;;;;;24.49;28.28;96561.28;10326528;28;96921;-74
2022/07/12 20:13:38;;;;;;;2.28;1.27;;;;;;;24.40;28.73;96567.16;10326251;28;97938;-76
2022/07/12 20:18:40;;;;;;;1.63;0.82;;;;;;;24.29;29.12;96574.09;10329567;28;97625;-73
2022/07/12 20:23:43;;;;;;;3.30;1.42;;;;;;;24.24;28.81;96579.28;10320569;28;99704;-74
2022/07/12 20:28:48;;;;;;;2.60;1.20;;;;;;;24.16;28.55;96583.09;10323974;28;97973;-75
2022/07/12 20:39:11;;;;;;;1.70;1.27;;;;;;;23.94;29.22;96575.53;10320883;28;98634;-73
2022/07/12 20:44:17;;;;;;;5.07;1.45;;;;;;;23.82;29.05;96579.19;10317275;28;98224;-69
2022/07/12 20:49:21;;;;;;;3.38;1.33;;;;;;;23.77;29.46;96592.38;10317159;28;96900;-72
2022/07/12 20:54:25;;;;;;;1.30;0.90;;;;;;;23.70;29.09;96595.13;10316634;28;97640;-72
2022/07/12 20:59:29;;;;;;;2.05;0.68;;;;;;;23.62;28.98;96593.56;10328248;28;97868;-72
2022/07/12 21:04:32;;;;;;;1.90;0.93;;;;;;;23.48;29.85;96598.22;10339319;28;98436;-72
2022/07/12 21:09:35;;;;;;;1.30;0.90;;;;;;;23.38;30.41;96590.72;10328049;28;99054;-72
2022/07/12 21:14:40;;;;;;;2.13;1.10;;;;;;;23.30;31.09;96593.66;10331553;28;98028;-72
2022/07/12 21:19:43;;;;;;;2.50;1.20;;;;;;;23.26;31.44;96591.66;10330540;28;96857;-72
2022/07/12 21:24:45;;;;;;;1.23;0.93;;;;;;;23.18;31.69;96596.19;10331141;28;98853;-72
2022/07/12 21:29:50;;;;;;;1.70;1.30;;;;;;;23.16;32.05;96589.47;10330187;28;97465;-72
2022/07/12 21:34:54;;;;;;;3.38;1.05;;;;;;;23.05;32.25;96584.84;10326989;28;96894;-72
2022/07/12 21:39:57;;;;;;;2.63;1.20;;;;;;;23.03;32.32;96587.75;10331258;28;96930;-72
2022/07/12 21:45:01;;;;;;;3.10;0.95;;;;;;;22.98;32.34;96585.72;10327714;28;98053;-72
2022/07/12 21:50:05;;;;;;;1.60;1.30;;;;;;;22.95;32.52;96582.69;10330155;28;98966;-72
2022/07/12 21:55:10;;;;;;;2.28;1.10;;;;;;;22.94;32.38;96579.22;10324798;28;99658;-72
2022/07/12 22:00:18;;;;;;;1.27;1.17;;;;;;;22.94;32.17;96587.19;10328693;28;98749;-72
2022/07/12 22:05:21;;;;;;;1.33;1.00;;;;;;;22.96;32.06;96585.13;10327492;28;98180;-72
2022/07/12 22:10:24;;;;;;;1.50;1.30;;;;;;;22.90;32.74;96585.19;10324958;28;100950;-72
2022/07/12 22:15:28;;;;;;;3.33;1.17;;;;;;;22.91;33.02;96584.97;10324613;28;97044;-72
2022/07/12 22:20:31;;;;;;;1.67;1.17;;;;;;;22.84;33.00;96588.69;10329287;28;96917;-72
2022/07/12 22:25:34;;;;;;;2.67;1.50;;;;;;;22.78;33.22;96587.72;10328493;28;98437;-72
2022/07/12 22:30:38;;;;;;;2.95;1.35;;;;;;;22.76;33.84;96589.78;10331913;28;98348;-72
2022/07/12 22:35:41;;;;;;;1.65;1.08;;;;;;;22.56;33.88;96585.44;10333901;28;98508;-72
2022/07/12 22:40:44;;;;;;;1.95;1.20;;;;;;;22.39;33.81;96581.63;10330993;28;98109;-72
2022/07/12 22:45:48;;;;;;;1.48;1.15;;;;;;;22.36;33.77;96590.03;10329947;28;96912;-72
2022/07/12 22:56:12;;;;;;;2.55;1.20;;;;;;;22.05;34.46;96583.63;10328287;28;99264;-72
2022/07/12 23:01:16;;;;;;;2.65;1.08;;;;;;;21.82;35.20;96587.59;10325916;28;98115;-72
2022/07/12 23:06:19;;;;;;;2.17;1.17;;;;;;;21.62;35.64;96592.16;10329772;28;97207;-72
2022/07/12 23:11:22;;;;;;;2.08;1.38;;;;;;;21.38;36.29;96590.97;10320402;28;97364;-72
2022/07/12 23:16:26;;;;;;;1.90;1.20;;;;;;;21.12;36.47;96590.00;10323552;28;98837;-71
2022/07/12 23:21:30;;;;;;;;;;;;;;;20.63;37.10;96602.59;10324989;28;99053;-71
2022/07/12 23:26:33;;;;;;;2.47;1.30;;;;;;;19.98;38.35;96604.88;10327652;28;97829;-71
2022/07/12 23:31:37;;;;;;;1.10;1.00;;;;;;;20.18;38.07;96599.63;10326144;28;98248;-71
2022/07/12 23:36:40;;;;;;;1.90;1.27;;;;;;;20.30;38.03;96597.22;10328882;28;96925;-71
2022/07/12 23:41:43;;;;;;;2.88;1.13;;;;;;;20.21;38.63;96593.94;10325787;28;99437;-71
2022/07/12 23:46:48;;;;;;;1.67;1.33;;;;;;;19.87;38.94;96598.31;10326683;28;98902;-71
2022/07/12 23:51:51;;;;;;;1.38;1.17;;;;;;;19.69;39.41;96596.16;10328906;28;96928;-71
2022/07/12 23:56:54;;;;;;;1.25;1.15;;;;;;;19.43;39.70;96596.81;10326071;28;98612;-71
